Ah Gwah Ching, MN (56430)

11:57 PM CDT on September 04, 2015 (GMT -0500)
LEECH LAKE TV | | Change Station
CLOSE
Current Station
Personal Weather Station
Location: Walker, MN
Elevation: 1484 ft
Nearby Weather Stations

Elev 1484 ft 47.09 °N, 94.58 °W | Updated 11 minutes ago

Mostly Cloudy
Mostly Cloudy
69.1 °F
Feels Like 69.1 °F
N
0.0
Wind Variable Wind from SE
Gusts 2.0 mph

Today
High -- | Low -- °F
--% Chance of Precip.
Yesterday
High -- | Low -- °F
Precip. -- in
6:41 AM 7:52 PM
Waning Gibbous, 52% visible
Pressure 29.93 in
Visibility 10.0 miles
Clouds Scattered Clouds 2600 ft
Scattered Clouds 3200 ft
Overcast 11000 ft
Dew Point 68 °F
Humidity 97%
Rainfall 1.15 in
Snow Depth Not available.
UV 0 out of 12
Pollen 10.60 out of 12
Air Quality Not available.
Flu Activity Not available.
METAR KXVG 050456Z AUTO 00000KT 10SM SCT026 SCT032 OVC110 23/22 A2993 RMK AO2 LTG DSNT N
Pressure 29.93 in
Visibility 10.0 miles
Clouds Scattered Clouds 2600 ft
Scattered Clouds 3200 ft
Overcast 11000 ft
Dew Point 68 °F
Humidity 97%
Rainfall 1.15 in
Snow Depth Not available.
UV 0 out of 12
Pollen 10.60 out of 12
Air Quality Not available.
Flu Activity Not available.
METAR KXVG 050456Z AUTO 00000KT 10SM SCT026 SCT032 OVC110 23/22 A2993 RMK AO2 LTG DSNT N

10-Day Weather Forecast

×

Almanac

Astronomy

Sep. 04, 2015 Rise Set
Actual Time
Civil Twilight
Nautical Twilight
Astronomical Twilight
Moon
Length of Visible Light
Length of Day
Tomorrow will be .
, % of the Moon is Illuminated

Today's Extremes

State Highs State Lows

Community

WunderPhotos

Upload Photos

1,852,426 photos uploaded!

WunderBlogs® & News

Nearby

Air Quality

  Air Quality AQ Index Pollutant
Not available.

Snow Depth

Station Depth Elevation

Earthquake Activity

City Distance Mag. Time & Date
Minimum magnitude displayed is 2.5.

Coastal Water Temperatures

Place Temperature

Stations

Nearby Weather Stations

Station Location Temp. Windchill Dew Point Humidity Wind Precip. Elev Updated Type